SAV4LB EGNV-EGGD
Flight info
| Callsign | SAV4LB |
|---|---|
| Flight time | 0h 41m |
| Altitude | 23000 |
| Route | GASKO P16 NOKIN N862 WEVBE |
| Aircraft | CRJ7/M-SDFGIRWY/S |
Departure
| Time | 2026-04-21 12:57 |
|---|---|
| Airport | Teesside International Airport (EGNV) |
Arrival
| Time | 2026-04-21 13:38 |
|---|---|
| Airport | Bristol Airport (EGGD) |
| Time | Latitude | Longitude | Altitude | Speed | Heading |
|---|---|---|---|---|---|
| 2026-04-21 12:54 | 54.50959 | -1.43499 | 123 ft | 8 kts | 240° |
| 2026-04-21 12:54 | 54.50932 | -1.43584 | 121 ft | 9 kts | 236° |
| 2026-04-21 12:55 | 54.50888 | -1.43657 | 122 ft | 9 kts | 218° |
| 2026-04-21 12:55 | 54.50836 | -1.43726 | 120 ft | 10 kts | 216° |
| 2026-04-21 12:55 | 54.50772 | -1.43767 | 121 ft | 10 kts | 185° |
| 2026-04-21 12:55 | 54.50700 | -1.43768 | 122 ft | 11 kts | 176° |
| 2026-04-21 12:56 | 54.50628 | -1.43743 | 121 ft | 11 kts | 162° |
| 2026-04-21 12:56 | 54.50558 | -1.43687 | 118 ft | 7 kts | 143° |
| 2026-04-21 12:56 | 54.50554 | -1.43625 | 120 ft | 4 kts | 51° |
| 2026-04-21 12:56 | 54.50618 | -1.43504 | 119 ft | 39 kts | 47° |
| 2026-04-21 12:57 | 54.50996 | -1.42796 | 119 ft | 120 kts | 48° |
| 2026-04-21 12:57 | 54.51673 | -1.41548 | 401 ft | 152 kts | 49° |
| 2026-04-21 12:57 | 54.52455 | -1.40149 | 940 ft | 181 kts | 47° |
| 2026-04-21 12:57 | 54.53363 | -1.38416 | 1786 ft | 192 kts | 58° |
| 2026-04-21 12:58 | 54.53764 | -1.36380 | 3161 ft | 185 kts | 84° |
| 2026-04-21 12:58 | 54.53642 | -1.34110 | 3818 ft | 193 kts | 103° |
| 2026-04-21 12:58 | 54.53008 | -1.32074 | 4528 ft | 193 kts | 130° |
| 2026-04-21 12:58 | 54.51815 | -1.31023 | 5214 ft | 210 kts | 168° |
| 2026-04-21 12:59 | 54.50350 | -1.31504 | 5864 ft | 226 kts | 206° |
| 2026-04-21 12:59 | 54.49207 | -1.33406 | 6524 ft | 234 kts | 232° |
| 2026-04-21 12:59 | 54.48325 | -1.35789 | 7186 ft | 237 kts | 234° |
| 2026-04-21 12:59 | 54.47350 | -1.38074 | 7837 ft | 237 kts | 225° |
| 2026-04-21 13:00 | 54.46259 | -1.40210 | 8469 ft | 239 kts | 223° |
| 2026-04-21 13:00 | 54.45139 | -1.42349 | 9102 ft | 241 kts | 223° |
| 2026-04-21 13:00 | 54.43999 | -1.44517 | 9629 ft | 251 kts | 223° |
| 2026-04-21 13:00 | 54.42781 | -1.46851 | 9878 ft | 274 kts | 224° |
| 2026-04-21 13:01 | 54.41501 | -1.49416 | 10266 ft | 290 kts | 226° |
| 2026-04-21 13:01 | 54.40159 | -1.52166 | 10501 ft | 312 kts | 226° |
| 2026-04-21 13:01 | 54.38715 | -1.55106 | 10884 ft | 326 kts | 226° |
| 2026-04-21 13:01 | 54.37244 | -1.58104 | 11584 ft | 330 kts | 226° |
| 2026-04-21 13:02 | 54.35757 | -1.61131 | 12327 ft | 333 kts | 226° |
| 2026-04-21 13:02 | 54.34255 | -1.64179 | 13070 ft | 336 kts | 226° |
| 2026-04-21 13:02 | 54.31216 | -1.70328 | 14529 ft | 342 kts | 226° |
| 2026-04-21 13:03 | 54.29657 | -1.73451 | 15203 ft | 345 kts | 226° |
| 2026-04-21 13:03 | 54.28082 | -1.76588 | 15877 ft | 348 kts | 226° |
| 2026-04-21 13:03 | 54.26491 | -1.79748 | 16540 ft | 352 kts | 226° |
| 2026-04-21 13:03 | 54.24900 | -1.82897 | 17200 ft | 355 kts | 225° |
| 2026-04-21 13:04 | 54.23276 | -1.86104 | 17836 ft | 359 kts | 226° |
| 2026-04-21 13:04 | 54.21633 | -1.89360 | 18501 ft | 362 kts | 226° |
| 2026-04-21 13:04 | 54.19982 | -1.92633 | 19110 ft | 364 kts | 226° |
| 2026-04-21 13:04 | 54.18317 | -1.95933 | 19659 ft | 368 kts | 226° |
| 2026-04-21 13:05 | 54.16643 | -1.99278 | 20230 ft | 372 kts | 226° |
| 2026-04-21 13:05 | 54.14979 | -2.02607 | 20774 ft | 375 kts | 226° |
| 2026-04-21 13:05 | 54.13278 | -2.05995 | 21333 ft | 377 kts | 226° |
| 2026-04-21 13:05 | 54.11560 | -2.09400 | 21868 ft | 380 kts | 226° |
| 2026-04-21 13:06 | 54.09829 | -2.12823 | 22428 ft | 382 kts | 225° |
| 2026-04-21 13:06 | 54.08081 | -2.16256 | 22951 ft | 386 kts | 225° |
| 2026-04-21 13:06 | 54.06293 | -2.19756 | 23257 ft | 396 kts | 226° |
| 2026-04-21 13:06 | 54.04455 | -2.23340 | 23375 ft | 410 kts | 226° |
| 2026-04-21 13:07 | 54.02558 | -2.26981 | 23421 ft | 408 kts | 222° |
| 2026-04-21 13:07 | 54.00293 | -2.29773 | 23438 ft | 402 kts | 204° |
| 2026-04-21 13:07 | 53.97747 | -2.31748 | 23451 ft | 403 kts | 199° |
| 2026-04-21 13:07 | 53.95107 | -2.33394 | 23444 ft | 405 kts | 196° |
| 2026-04-21 13:08 | 53.92455 | -2.34936 | 23446 ft | 408 kts | 195° |
| 2026-04-21 13:08 | 53.89763 | -2.36544 | 23446 ft | 412 kts | 197° |
| 2026-04-21 13:08 | 53.87061 | -2.38238 | 23445 ft | 416 kts | 198° |
| 2026-04-21 13:08 | 53.84347 | -2.40002 | 23432 ft | 419 kts | 199° |
| 2026-04-21 13:09 | 53.81620 | -2.41802 | 23429 ft | 422 kts | 198° |
| 2026-04-21 13:09 | 53.78875 | -2.43607 | 23423 ft | 424 kts | 199° |
| 2026-04-21 13:09 | 53.76113 | -2.45391 | 23430 ft | 427 kts | 199° |
| 2026-04-21 13:09 | 53.73316 | -2.47163 | 23420 ft | 429 kts | 198° |
| 2026-04-21 13:10 | 53.70507 | -2.48928 | 23426 ft | 431 kts | 198° |
| 2026-04-21 13:10 | 53.67683 | -2.50689 | 23409 ft | 433 kts | 198° |
| 2026-04-21 13:10 | 53.64850 | -2.52454 | 23417 ft | 436 kts | 199° |
| 2026-04-21 13:10 | 53.61999 | -2.54245 | 23414 ft | 438 kts | 199° |
| 2026-04-21 13:11 | 53.59136 | -2.56061 | 23414 ft | 440 kts | 199° |
| 2026-04-21 13:11 | 53.56301 | -2.57854 | 23410 ft | 441 kts | 200° |
| 2026-04-21 13:11 | 53.53415 | -2.59674 | 23395 ft | 443 kts | 200° |
| 2026-04-21 13:11 | 53.50524 | -2.61496 | 23388 ft | 445 kts | 200° |
| 2026-04-21 13:12 | 53.47619 | -2.63324 | 23385 ft | 446 kts | 201° |
| 2026-04-21 13:12 | 53.44698 | -2.65145 | 23384 ft | 448 kts | 201° |
| 2026-04-21 13:12 | 53.41780 | -2.66992 | 23380 ft | 449 kts | 201° |
| 2026-04-21 13:12 | 53.38850 | -2.68842 | 23379 ft | 451 kts | 201° |
| 2026-04-21 13:13 | 53.35901 | -2.70699 | 23381 ft | 452 kts | 202° |
| 2026-04-21 13:13 | 53.32948 | -2.72553 | 23376 ft | 454 kts | 202° |
| 2026-04-21 13:13 | 53.29984 | -2.74404 | 23377 ft | 455 kts | 202° |
| 2026-04-21 13:13 | 53.27011 | -2.76266 | 23378 ft | 457 kts | 202° |
| 2026-04-21 13:14 | 53.24034 | -2.78137 | 23378 ft | 458 kts | 203° |
| 2026-04-21 13:14 | 53.21042 | -2.80015 | 23384 ft | 459 kts | 203° |
| 2026-04-21 13:14 | 53.18078 | -2.81871 | 23378 ft | 461 kts | 203° |
| 2026-04-21 13:14 | 53.15065 | -2.83739 | 23379 ft | 462 kts | 203° |
| 2026-04-21 13:15 | 53.12044 | -2.85601 | 23381 ft | 464 kts | 202° |
| 2026-04-21 13:15 | 53.09005 | -2.87454 | 23373 ft | 465 kts | 201° |
| 2026-04-21 13:15 | 53.05830 | -2.88615 | 23372 ft | 469 kts | 190° |
| 2026-04-21 13:15 | 53.02575 | -2.89056 | 23372 ft | 471 kts | 185° |
| 2026-04-21 13:16 | 52.99290 | -2.89186 | 23373 ft | 472 kts | 183° |
| 2026-04-21 13:16 | 52.95996 | -2.89273 | 23369 ft | 473 kts | 184° |
| 2026-04-21 13:16 | 52.92718 | -2.89469 | 23367 ft | 466 kts | 185° |
| 2026-04-21 13:16 | 52.89539 | -2.89765 | 23364 ft | 450 kts | 187° |
| 2026-04-21 13:17 | 52.86472 | -2.90321 | 23356 ft | 435 kts | 191° |
| 2026-04-21 13:17 | 52.83531 | -2.91094 | 23348 ft | 420 kts | 193° |
| 2026-04-21 13:17 | 52.80726 | -2.91847 | 23349 ft | 408 kts | 192° |
| 2026-04-21 13:17 | 52.77961 | -2.92561 | 23348 ft | 397 kts | 192° |
| 2026-04-21 13:18 | 52.75262 | -2.93240 | 23343 ft | 389 kts | 192° |
| 2026-04-21 13:18 | 52.72589 | -2.93883 | 23349 ft | 388 kts | 192° |
| 2026-04-21 13:18 | 52.69895 | -2.94432 | 23352 ft | 390 kts | 188° |
| 2026-04-21 13:18 | 52.67179 | -2.94672 | 23354 ft | 392 kts | 185° |
| 2026-04-21 13:19 | 52.64445 | -2.94805 | 23355 ft | 394 kts | 185° |
| 2026-04-21 13:19 | 52.61702 | -2.94935 | 23362 ft | 395 kts | 185° |
| 2026-04-21 13:19 | 52.58948 | -2.95098 | 23356 ft | 397 kts | 186° |
| 2026-04-21 13:19 | 52.56178 | -2.95323 | 23359 ft | 398 kts | 187° |
| 2026-04-21 13:20 | 52.53400 | -2.95552 | 23361 ft | 400 kts | 187° |
| 2026-04-21 13:20 | 52.50645 | -2.95779 | 23347 ft | 402 kts | 187° |
| 2026-04-21 13:20 | 52.47845 | -2.96012 | 23351 ft | 403 kts | 187° |
| 2026-04-21 13:20 | 52.45040 | -2.96244 | 23333 ft | 405 kts | 187° |
| 2026-04-21 13:21 | 52.42212 | -2.96476 | 23037 ft | 407 kts | 187° |
| 2026-04-21 13:21 | 52.39367 | -2.96714 | 22539 ft | 411 kts | 186° |
| 2026-04-21 13:21 | 52.36532 | -2.96945 | 21886 ft | 405 kts | 186° |
| 2026-04-21 13:21 | 52.33730 | -2.97168 | 21242 ft | 400 kts | 186° |
| 2026-04-21 13:22 | 52.30961 | -2.97400 | 20605 ft | 396 kts | 186° |
| 2026-04-21 13:22 | 52.28222 | -2.97640 | 19985 ft | 393 kts | 185° |
| 2026-04-21 13:22 | 52.25504 | -2.97894 | 19384 ft | 389 kts | 185° |
| 2026-04-21 13:22 | 52.22815 | -2.98156 | 18795 ft | 386 kts | 184° |
| 2026-04-21 13:23 | 52.20139 | -2.98384 | 18149 ft | 383 kts | 182° |
| 2026-04-21 13:23 | 52.17521 | -2.98598 | 17486 ft | 380 kts | 182° |
| 2026-04-21 13:23 | 52.14893 | -2.98813 | 16844 ft | 377 kts | 182° |
| 2026-04-21 13:23 | 52.12281 | -2.99030 | 16193 ft | 374 kts | 182° |
| 2026-04-21 13:24 | 52.09702 | -2.99228 | 15725 ft | 367 kts | 182° |
| 2026-04-21 13:24 | 52.07177 | -2.99428 | 15509 ft | 361 kts | 181° |
| 2026-04-21 13:24 | 52.04679 | -2.99621 | 15423 ft | 356 kts | 181° |
| 2026-04-21 13:24 | 52.02212 | -2.99807 | 15395 ft | 354 kts | 181° |
| 2026-04-21 13:25 | 51.99753 | -2.99985 | 15387 ft | 352 kts | 181° |
| 2026-04-21 13:25 | 51.97313 | -3.00161 | 15389 ft | 350 kts | 181° |
| 2026-04-21 13:25 | 51.94898 | -3.00059 | 15396 ft | 344 kts | 168° |
| 2026-04-21 13:25 | 51.92627 | -2.99091 | 15415 ft | 341 kts | 160° |
| 2026-04-21 13:26 | 51.90398 | -2.97753 | 15290 ft | 344 kts | 157° |
| 2026-04-21 13:26 | 51.88157 | -2.96290 | 14927 ft | 349 kts | 156° |
| 2026-04-21 13:26 | 51.85908 | -2.94828 | 14551 ft | 347 kts | 156° |
| 2026-04-21 13:26 | 51.83653 | -2.93411 | 14156 ft | 346 kts | 158° |
| 2026-04-21 13:27 | 51.81417 | -2.92067 | 13720 ft | 340 kts | 158° |
| 2026-04-21 13:27 | 51.79207 | -2.90764 | 13280 ft | 334 kts | 158° |
| 2026-04-21 13:27 | 51.77038 | -2.89502 | 12849 ft | 328 kts | 158° |
| 2026-04-21 13:27 | 51.74923 | -2.88282 | 12459 ft | 318 kts | 158° |
| 2026-04-21 13:28 | 51.72879 | -2.87095 | 12087 ft | 307 kts | 157° |
| 2026-04-21 13:28 | 51.70905 | -2.85954 | 11713 ft | 297 kts | 158° |
| 2026-04-21 13:28 | 51.68959 | -2.84970 | 11333 ft | 289 kts | 160° |
| 2026-04-21 13:28 | 51.67047 | -2.84135 | 10967 ft | 281 kts | 161° |
| 2026-04-21 13:29 | 51.65176 | -2.83358 | 10582 ft | 274 kts | 162° |
| 2026-04-21 13:29 | 51.63351 | -2.82606 | 10190 ft | 269 kts | 161° |
| 2026-04-21 13:29 | 51.61541 | -2.81849 | 9788 ft | 268 kts | 161° |
| 2026-04-21 13:29 | 51.59690 | -2.81592 | 9408 ft | 273 kts | 188° |
| 2026-04-21 13:30 | 51.57954 | -2.82767 | 9038 ft | 276 kts | 205° |
| 2026-04-21 13:30 | 51.56303 | -2.84318 | 8651 ft | 275 kts | 207° |
| 2026-04-21 13:30 | 51.54688 | -2.85936 | 8141 ft | 273 kts | 208° |
| 2026-04-21 13:30 | 51.53090 | -2.87580 | 7699 ft | 273 kts | 208° |
| 2026-04-21 13:31 | 51.51496 | -2.89250 | 7242 ft | 273 kts | 209° |
| 2026-04-21 13:31 | 51.49913 | -2.90924 | 6806 ft | 270 kts | 208° |
| 2026-04-21 13:31 | 51.48352 | -2.92588 | 6334 ft | 267 kts | 208° |
| 2026-04-21 13:31 | 51.46816 | -2.94235 | 5864 ft | 264 kts | 209° |
| 2026-04-21 13:32 | 51.45297 | -2.95864 | 5402 ft | 262 kts | 209° |
| 2026-04-21 13:32 | 51.43791 | -2.97484 | 4943 ft | 259 kts | 209° |
| 2026-04-21 13:32 | 51.42297 | -2.99089 | 4462 ft | 258 kts | 209° |
| 2026-04-21 13:32 | 51.40822 | -3.00595 | 4006 ft | 252 kts | 199° |
| 2026-04-21 13:33 | 51.39134 | -3.01236 | 3543 ft | 241 kts | 179° |
| 2026-04-21 13:33 | 51.37596 | -3.00706 | 3092 ft | 220 kts | 140° |
| 2026-04-21 13:33 | 51.36707 | -2.98909 | 2770 ft | 198 kts | 103° |
| 2026-04-21 13:33 | 51.36664 | -2.96841 | 2626 ft | 179 kts | 82° |
| 2026-04-21 13:34 | 51.36825 | -2.94958 | 2584 ft | 162 kts | 79° |
| 2026-04-21 13:34 | 51.36996 | -2.93272 | 2581 ft | 145 kts | 80° |
| 2026-04-21 13:34 | 51.36954 | -2.91788 | 2492 ft | 130 kts | 113° |
| 2026-04-21 13:34 | 51.36504 | -2.90564 | 2498 ft | 127 kts | 115° |
| 2026-04-21 13:35 | 51.36214 | -2.89288 | 2449 ft | 117 kts | 74° |
| 2026-04-21 13:35 | 51.36783 | -2.88328 | 2404 ft | 138 kts | 30° |
| 2026-04-21 13:35 | 51.37624 | -2.87584 | 2431 ft | 140 kts | 47° |
| 2026-04-21 13:35 | 51.38006 | -2.86282 | 2342 ft | 137 kts | 90° |
| 2026-04-21 13:36 | 51.37964 | -2.84668 | 2310 ft | 141 kts | 94° |
| 2026-04-21 13:36 | 51.37918 | -2.83127 | 2190 ft | 141 kts | 91° |
| 2026-04-21 13:36 | 51.37940 | -2.81569 | 2004 ft | 135 kts | 90° |
| 2026-04-21 13:36 | 51.37974 | -2.80605 | 1831 ft | 129 kts | 89° |
| 2026-04-21 13:37 | 51.38006 | -2.78737 | 1394 ft | 122 kts | 90° |
| 2026-04-21 13:37 | 51.38032 | -2.77406 | 1167 ft | 124 kts | 86° |
| 2026-04-21 13:37 | 51.38128 | -2.76004 | 1072 ft | 128 kts | 87° |
| 2026-04-21 13:37 | 51.38169 | -2.74566 | 827 ft | 127 kts | 90° |
| 2026-04-21 13:38 | 51.38215 | -2.73242 | 635 ft | 107 kts | 83° |
| 2026-04-21 13:38 | 51.38248 | -2.72547 | 627 ft | 78 kts | 86° |
| 2026-04-21 13:38 | 51.38270 | -2.71832 | 635 ft | 56 kts | 87° |
| 2026-04-21 13:38 | 51.38290 | -2.71278 | 619 ft | 45 kts | 86° |
| 2026-04-21 13:39 | 51.38308 | -2.70868 | 621 ft | 24 kts | 84° |
| 2026-04-21 13:39 | 51.38373 | -2.70743 | 620 ft | 11 kts | 22° |
| 2026-04-21 13:39 | 51.38404 | -2.70722 | 615 ft | 4 kts | 21° |
| 2026-04-21 13:39 | 51.38436 | -2.70705 | 615 ft | 6 kts | 8° |
| 2026-04-21 13:40 | 51.38467 | -2.70731 | 613 ft | 5 kts | 288° |
| 2026-04-21 13:40 | 51.38473 | -2.70794 | 612 ft | 6 kts | 287° |
| 2026-04-21 13:40 | 51.38513 | -2.70821 | 611 ft | 5 kts | 354° |
| 2026-04-21 13:40 | 51.38541 | -2.70825 | 611 ft | 6 kts | 354° |
| 2026-04-21 13:41 | 51.38566 | -2.70846 | 613 ft | 4 kts | 297° |
| 2026-04-21 13:41 | 51.38567 | -2.70897 | 610 ft | 5 kts | 265° |
| 2026-04-21 13:41 | 51.38567 | -2.70905 | 618 ft | 0 kts | 265° |